createdAt,value
2023-05-19T00:00:40.910Z,2.80
2023-05-19T00:03:09.607Z,3.23
2023-05-19T00:05:46.158Z,3.27
2023-05-19T00:08:17.829Z,2.97
2023-05-19T00:10:47.720Z,3.67
2023-05-19T00:13:16.047Z,3.20
2023-05-19T00:15:44.441Z,3.30
2023-05-19T00:18:16.748Z,3.07
2023-05-19T00:20:44.797Z,3.10
2023-05-19T00:23:12.718Z,3.07
2023-05-19T00:25:40.583Z,3.23
2023-05-19T00:28:09.854Z,2.83
2023-05-19T00:30:37.900Z,3.07
2023-05-19T00:33:05.903Z,3.10
2023-05-19T00:35:33.881Z,2.60
2023-05-19T00:38:01.788Z,2.83
2023-05-19T00:40:33.430Z,3.17
2023-05-19T00:43:01.608Z,2.90
2023-05-19T00:45:30.844Z,3.10
2023-05-19T00:47:58.795Z,3.30
2023-05-19T00:50:27.442Z,2.90
2023-05-19T00:52:55.777Z,2.70
2023-05-19T00:55:27.797Z,3.17
2023-05-19T00:57:57.946Z,3.07
2023-05-19T01:00:25.960Z,2.67
2023-05-19T01:02:56.191Z,2.40
2023-05-19T01:05:24.154Z,3.10
2023-05-19T01:07:53.663Z,2.80
2023-05-19T01:10:22.673Z,2.70
2023-05-19T01:12:50.665Z,2.80
2023-05-19T01:15:18.711Z,2.90
2023-05-19T01:17:54.642Z,3.10
2023-05-19T01:20:31.293Z,2.67
2023-05-19T01:23:23.936Z,2.80
2023-05-19T01:26:12.838Z,3.03
2023-05-19T01:29:04.329Z,2.97
2023-05-19T01:31:35.076Z,3.10
2023-05-19T01:34:05.814Z,2.93
2023-05-19T01:36:34.807Z,2.83
2023-05-19T01:39:03.634Z,3.10
2023-05-19T01:41:32.619Z,3.00
2023-05-19T01:44:01.170Z,3.37
2023-05-19T01:46:29.201Z,3.00
2023-05-19T01:48:59.591Z,3.17
2023-05-19T01:51:27.839Z,3.17
2023-05-19T01:53:56.395Z,2.40
2023-05-19T01:56:33.616Z,2.70
2023-05-19T01:59:10.351Z,3.10
2023-05-19T02:01:50.169Z,2.97
2023-05-19T02:04:30.489Z,3.27
2023-05-19T02:07:04.994Z,2.67
2023-05-19T02:09:41.129Z,3.23
2023-05-19T02:12:15.522Z,3.37
2023-05-19T02:14:50.897Z,3.07
2023-05-19T02:17:21.515Z,2.60
2023-05-19T02:19:50.871Z,3.10
2023-05-19T02:22:18.817Z,3.10
2023-05-19T02:24:47.800Z,2.93
2023-05-19T02:27:15.708Z,3.10
2023-05-19T02:29:43.613Z,3.40
2023-05-19T02:32:12.384Z,2.90
2023-05-19T02:34:42.304Z,3.30
2023-05-19T02:37:12.486Z,3.20
2023-05-19T02:39:40.411Z,3.20
2023-05-19T02:42:08.419Z,3.60
2023-05-19T02:44:36.346Z,3.10
2023-05-19T02:47:04.342Z,3.20
2023-05-19T02:49:35.945Z,3.30
2023-05-19T02:52:04.188Z,3.10
2023-05-19T02:54:34.128Z,3.07
2023-05-19T02:57:03.650Z,3.10
2023-05-19T02:59:31.530Z,3.10
2023-05-19T03:02:01.882Z,3.17
2023-05-19T03:04:30.389Z,2.80
2023-05-19T03:06:58.574Z,3.00
2023-05-19T03:09:26.554Z,3.17
2023-05-19T03:11:55.849Z,3.10
2023-05-19T03:14:24.591Z,3.60
2023-05-19T03:16:52.957Z,3.20
2023-05-19T03:19:21.211Z,3.30
2023-05-19T03:21:49.704Z,3.33
2023-05-19T03:24:17.618Z,3.43
2023-05-19T03:26:46.006Z,3.33
2023-05-19T03:29:15.253Z,3.27
2023-05-19T03:31:43.657Z,3.40
2023-05-19T03:34:11.537Z,3.53
2023-05-19T03:36:39.974Z,3.20
2023-05-19T03:39:08.212Z,2.83
2023-05-19T03:41:36.111Z,3.40
2023-05-19T03:44:03.977Z,3.70
2023-05-19T03:46:33.345Z,3.30
2023-05-19T03:49:01.291Z,3.33
2023-05-19T03:51:30.123Z,3.43
2023-05-19T03:53:58.446Z,3.37
2023-05-19T03:56:27.583Z,3.07
2023-05-19T03:58:56.067Z,3.90
2023-05-19T04:01:24.028Z,3.50
2023-05-19T04:03:53.288Z,3.87
2023-05-19T04:06:21.243Z,3.47
2023-05-19T04:08:49.150Z,3.23
2023-05-19T04:11:17.080Z,2.97
2023-05-19T04:13:45.310Z,3.30
2023-05-19T04:16:13.437Z,3.20
2023-05-19T04:18:41.354Z,3.10
2023-05-19T04:21:10.698Z,3.43
2023-05-19T04:23:38.558Z,3.63
2023-05-19T04:26:06.915Z,3.50
2023-05-19T04:28:38.890Z,3.43
2023-05-19T04:31:11.192Z,2.97
2023-05-19T04:33:39.318Z,3.47
2023-05-19T04:36:10.710Z,6.77
2023-05-19T04:38:40.942Z,5.37
2023-05-19T04:41:11.096Z,4.20
2023-05-19T04:43:41.938Z,5.43
2023-05-19T04:46:13.935Z,4.40
2023-05-19T04:48:42.799Z,3.90
2023-05-19T04:51:14.270Z,4.27
2023-05-19T04:53:44.010Z,4.07
2023-05-19T04:56:15.247Z,3.30
2023-05-19T04:58:44.874Z,3.50
2023-05-19T05:01:13.929Z,3.80
2023-05-19T05:03:42.084Z,4.00
2023-05-19T05:06:10.436Z,3.50
2023-05-19T05:08:40.516Z,3.57
2023-05-19T05:11:10.901Z,3.70
2023-05-19T05:13:39.500Z,3.20
2023-05-19T05:16:08.537Z,3.10
2023-05-19T05:18:38.788Z,3.23
2023-05-19T05:21:08.260Z,3.47
2023-05-19T05:23:36.866Z,3.90
2023-05-19T05:26:17.120Z,3.53
2023-05-19T05:28:44.999Z,3.03
2023-05-19T05:31:12.926Z,3.30
2023-05-19T05:33:41.109Z,3.73
2023-05-19T05:36:09.689Z,3.17
2023-05-19T05:38:37.606Z,3.63
2023-05-19T05:41:05.816Z,3.30
2023-05-19T05:43:35.216Z,2.90
2023-05-19T05:46:03.165Z,3.93
2023-05-19T05:48:31.553Z,3.20
2023-05-19T05:51:01.069Z,3.70
2023-05-19T05:53:32.153Z,3.40
2023-05-19T05:56:00.674Z,3.20
2023-05-19T05:58:29.236Z,3.57
2023-05-19T06:00:58.743Z,3.40
2023-05-19T06:03:26.985Z,3.33
2023-05-19T06:05:55.129Z,3.50
2023-05-19T06:08:23.197Z,3.70
2023-05-19T06:10:51.067Z,3.20
2023-05-19T06:13:22.675Z,3.70
2023-05-19T06:15:50.840Z,3.63
2023-05-19T06:18:20.151Z,3.40
2023-05-19T06:20:48.059Z,3.80
2023-05-19T06:23:15.958Z,3.20
2023-05-19T06:25:44.006Z,3.27
2023-05-19T06:28:12.357Z,3.60
2023-05-19T06:30:40.272Z,3.53
2023-05-19T06:33:08.381Z,3.60
2023-05-19T06:35:37.697Z,3.33
2023-05-19T06:38:05.766Z,3.67
2023-05-19T06:40:34.005Z,3.37
2023-05-19T06:43:02.120Z,3.27
2023-05-19T06:45:30.044Z,3.20
2023-05-19T06:47:58.594Z,3.40
2023-05-19T06:50:26.632Z,3.27
2023-05-19T06:52:57.247Z,3.50
2023-05-19T06:55:25.488Z,3.40
2023-05-19T06:57:53.388Z,2.93
2023-05-19T07:00:23.106Z,3.63
2023-05-19T07:02:52.195Z,3.30
2023-05-19T07:05:20.554Z,3.40
2023-05-19T07:07:48.468Z,3.17
2023-05-19T07:10:17.876Z,3.17
2023-05-19T07:12:45.772Z,3.07
2023-05-19T07:15:13.685Z,3.20
2023-05-19T07:17:41.641Z,3.00
2023-05-19T07:20:11.150Z,3.20
2023-05-19T07:22:39.900Z,3.40
2023-05-19T07:25:08.545Z,2.90
2023-05-19T07:27:37.880Z,3.00
2023-05-19T07:30:06.458Z,2.97
2023-05-19T07:32:34.411Z,2.93
2023-05-19T07:35:02.523Z,3.07
2023-05-19T07:37:30.649Z,3.00
2023-05-19T07:39:58.542Z,3.03
2023-05-19T07:42:26.531Z,2.90
2023-05-19T07:44:55.906Z,2.97
2023-05-19T07:47:23.812Z,3.00
2023-05-19T07:49:52.061Z,2.80
2023-05-19T07:52:20.179Z,2.80
2023-05-19T07:54:48.085Z,3.33
2023-05-19T07:57:16.082Z,2.70
2023-05-19T07:59:43.989Z,2.50
2023-05-19T08:02:13.323Z,2.80
2023-05-19T08:04:41.410Z,2.90
2023-05-19T08:07:09.347Z,2.50
2023-05-19T08:09:37.221Z,2.55
2023-05-19T08:12:06.138Z,2.60
2023-05-19T08:14:34.926Z,2.90
2023-05-19T08:17:02.824Z,2.53
2023-05-19T08:19:38.072Z,2.65
2023-05-19T08:22:06.352Z,2.70
2023-05-19T08:24:34.576Z,7.57
2023-05-19T08:27:02.539Z,2.90
2023-05-19T08:29:30.524Z,4.07
2023-05-19T08:32:00.292Z,2.15
2023-05-19T08:34:28.282Z,2.40
2023-05-19T08:36:57.958Z,2.50
2023-05-19T08:39:27.123Z,2.58
2023-05-19T08:41:55.234Z,2.63
2023-05-19T08:44:23.502Z,2.67
2023-05-19T08:46:54.225Z,2.50
2023-05-19T08:49:28.945Z,2.50
2023-05-19T08:52:07.317Z,2.60
2023-05-19T08:54:51.033Z,2.33
2023-05-19T08:57:19.942Z,2.05
2023-05-19T08:59:49.075Z,2.47
2023-05-19T09:02:17.655Z,2.50
2023-05-19T09:04:48.104Z,2.40
2023-05-19T09:07:18.893Z,2.47
2023-05-19T09:09:47.761Z,2.37
2023-05-19T09:12:15.720Z,2.10
2023-05-19T09:14:43.757Z,3.00
2023-05-19T09:17:12.029Z,2.90
2023-05-19T09:19:47.279Z,2.40
2023-05-19T09:22:19.092Z,2.70
2023-05-19T09:24:48.139Z,3.00
2023-05-19T09:27:16.640Z,2.87
2023-05-19T09:29:44.582Z,2.80
2023-05-19T09:32:12.557Z,2.43
2023-05-19T09:34:42.786Z,2.13
2023-05-19T09:37:10.674Z,2.20
2023-05-19T09:39:39.986Z,2.27
2023-05-19T09:42:08.390Z,2.03
2023-05-19T09:44:36.592Z,2.20
2023-05-19T09:47:05.057Z,2.30
2023-05-19T09:49:33.080Z,2.20
2023-05-19T09:52:04.285Z,2.10
2023-05-19T09:54:32.612Z,2.07
2023-05-19T09:57:04.002Z,2.07
2023-05-19T09:59:33.651Z,1.90
2023-05-19T10:02:03.150Z,1.77
2023-05-19T10:04:32.427Z,2.00
2023-05-19T10:07:00.763Z,1.70
2023-05-19T10:09:29.634Z,1.77
2023-05-19T10:11:59.022Z,1.80
2023-05-19T10:14:32.194Z,2.00
2023-05-19T10:17:01.789Z,1.83
2023-05-19T10:19:33.032Z,1.77
2023-05-19T10:22:01.128Z,1.67
2023-05-19T10:24:29.002Z,2.00
2023-05-19T10:27:01.099Z,1.30
2023-05-19T10:29:32.930Z,1.60
2023-05-19T10:32:12.849Z,1.80
2023-05-19T10:35:00.949Z,1.83
2023-05-19T10:37:35.877Z,1.77
2023-05-19T10:40:11.385Z,1.80
2023-05-19T10:42:49.363Z,1.30
2023-05-19T10:45:21.947Z,1.55
2023-05-19T10:47:51.920Z,1.80
2023-05-19T10:50:21.648Z,1.38
2023-05-19T10:52:55.708Z,1.33
2023-05-19T10:55:48.720Z,1.75
2023-05-19T10:58:16.788Z,1.90
2023-05-19T11:00:46.020Z,1.50
2023-05-19T11:03:15.296Z,1.40
2023-05-19T11:05:45.600Z,1.30
2023-05-19T11:08:14.182Z,2.00
2023-05-19T11:10:46.089Z,1.67
2023-05-19T11:13:22.585Z,1.85
2023-05-19T11:15:52.971Z,1.45
2023-05-19T11:18:21.443Z,1.88
2023-05-19T11:20:59.156Z,1.70
2023-05-19T11:23:27.199Z,1.60
2023-05-19T11:25:55.233Z,1.63
2023-05-19T11:28:26.249Z,1.70
2023-05-19T11:30:59.119Z,1.73
2023-05-19T11:33:33.612Z,1.63
2023-05-19T11:36:01.564Z,1.80
2023-05-19T11:38:30.412Z,1.98
2023-05-19T11:40:58.877Z,1.90
2023-05-19T11:43:27.196Z,1.95
2023-05-19T11:45:57.073Z,1.70
2023-05-19T11:48:26.197Z,1.60
2023-05-19T11:50:54.391Z,1.33
2023-05-19T11:53:22.568Z,1.95
2023-05-19T11:55:50.783Z,1.60
2023-05-19T11:58:19.069Z,1.65
2023-05-19T12:00:47.866Z,1.63
2023-05-19T12:03:23.198Z,1.40
2023-05-19T12:05:51.419Z,1.55
2023-05-19T12:08:19.645Z,1.73
2023-05-19T12:10:49.892Z,1.40
2023-05-19T12:13:18.117Z,1.70
2023-05-19T12:15:46.075Z,1.88
2023-05-19T12:18:14.126Z,1.80
2023-05-19T12:20:44.265Z,1.52
2023-05-19T12:23:12.353Z,1.50
2023-05-19T12:25:40.626Z,1.70
2023-05-19T12:28:08.547Z,1.60
2023-05-19T12:30:36.871Z,1.55
2023-05-19T12:33:05.426Z,1.43
2023-05-19T12:35:34.400Z,1.70
2023-05-19T12:38:07.565Z,1.67
2023-05-19T12:40:36.490Z,2.30
2023-05-19T12:43:05.383Z,1.90
2023-05-19T12:45:36.172Z,1.80
2023-05-19T12:48:06.674Z,2.00
2023-05-19T12:50:35.290Z,1.70
2023-05-19T12:53:03.489Z,1.60
2023-05-19T12:55:39.424Z,1.77
2023-05-19T12:58:08.688Z,1.73
2023-05-19T13:00:42.376Z,1.80
2023-05-19T13:03:16.759Z,1.93
2023-05-19T13:05:46.540Z,1.73
2023-05-19T13:08:16.200Z,1.70
2023-05-19T13:10:47.374Z,1.80
2023-05-19T13:13:15.351Z,1.98
2023-05-19T13:15:44.851Z,2.10
2023-05-19T13:18:13.890Z,1.80
2023-05-19T13:20:44.448Z,1.90
2023-05-19T13:23:13.532Z,1.73
2023-05-19T13:25:42.332Z,2.00
2023-05-19T13:28:12.114Z,2.08
2023-05-19T13:30:41.597Z,1.90
2023-05-19T13:33:09.652Z,2.30
2023-05-19T13:35:38.293Z,2.00
2023-05-19T13:38:06.846Z,1.83
2023-05-19T13:40:35.218Z,1.80
2023-05-19T13:43:03.600Z,2.00
2023-05-19T13:45:32.941Z,1.92
2023-05-19T13:48:01.093Z,1.95
2023-05-19T13:50:29.052Z,1.80
2023-05-19T13:52:57.085Z,1.70
2023-05-19T13:55:27.163Z,1.65
2023-05-19T13:57:55.096Z,1.90
2023-05-19T14:00:23.072Z,1.90
2023-05-19T14:02:52.803Z,1.75
2023-05-19T14:05:21.170Z,1.88
2023-05-19T14:07:49.111Z,1.50
2023-05-19T14:10:16.982Z,1.67
2023-05-19T14:13:12.223Z,1.98
2023-05-19T14:15:37.733Z,1.75
2023-05-19T14:18:07.461Z,1.67
2023-05-19T14:20:38.232Z,1.65
2023-05-19T14:23:06.319Z,1.73
2023-05-19T14:25:34.218Z,1.65
2023-05-19T14:28:02.817Z,1.83
2023-05-19T14:30:30.752Z,1.58
2023-05-19T14:32:58.688Z,1.90
2023-05-19T14:35:28.534Z,1.50
2023-05-19T14:37:56.516Z,1.93
2023-05-19T14:40:24.408Z,1.67
2023-05-19T14:42:52.298Z,1.47
2023-05-19T14:45:20.246Z,1.77
2023-05-19T14:47:48.297Z,1.93
2023-05-19T14:50:16.275Z,1.60
2023-05-19T14:52:45.565Z,1.80
2023-05-19T14:55:13.631Z,3.20
2023-05-19T14:57:41.514Z,1.80
2023-05-19T15:00:10.710Z,1.67
2023-05-19T15:02:41.643Z,1.70
2023-05-19T15:05:10.002Z,1.80
2023-05-19T15:07:37.911Z,1.70
2023-05-19T15:10:08.112Z,2.00
2023-05-19T15:12:36.087Z,1.97
2023-05-19T15:15:04.079Z,1.83
2023-05-19T15:17:32.413Z,1.57
2023-05-19T15:20:00.597Z,1.60
2023-05-19T15:22:28.491Z,1.80
2023-05-19T15:24:56.397Z,2.00
2023-05-19T15:27:25.671Z,2.00
2023-05-19T15:29:53.589Z,2.20
2023-05-19T15:32:21.518Z,1.50
2023-05-19T15:34:49.457Z,1.87
2023-05-19T15:37:17.362Z,1.93
2023-05-19T15:39:45.323Z,1.90
2023-05-19T15:42:13.212Z,2.10
2023-05-19T15:44:42.480Z,1.77
2023-05-19T15:47:10.349Z,2.07
2023-05-19T15:49:38.221Z,1.90
2023-05-19T15:52:06.814Z,2.37
2023-05-19T15:54:34.752Z,2.40
2023-05-19T15:57:02.600Z,2.43
2023-05-19T15:59:30.502Z,2.37
2023-05-19T16:02:00.011Z,2.03
2023-05-19T16:04:27.954Z,2.30
2023-05-19T16:06:55.966Z,2.27
2023-05-19T16:09:23.885Z,2.10
2023-05-19T16:11:51.759Z,2.10
2023-05-19T16:14:19.676Z,2.00
2023-05-19T16:16:47.634Z,1.90
2023-05-19T16:19:17.000Z,2.20
2023-05-19T16:21:45.192Z,2.27
2023-05-19T16:24:13.073Z,2.20
2023-05-19T16:26:40.918Z,2.27
2023-05-19T16:29:08.807Z,2.30
2023-05-19T16:31:36.722Z,2.37
2023-05-19T16:34:04.686Z,2.60
2023-05-19T16:36:33.943Z,2.50
2023-05-19T16:39:01.843Z,3.17
2023-05-19T16:41:29.733Z,3.50
2023-05-19T16:43:57.601Z,2.50
2023-05-19T16:46:25.609Z,2.50
2023-05-19T16:48:53.538Z,2.20
2023-05-19T16:51:21.663Z,2.27
2023-05-19T16:53:50.952Z,2.40
2023-05-19T16:56:18.816Z,2.30
2023-05-19T16:58:46.712Z,2.63
2023-05-19T17:01:14.647Z,2.50
2023-05-19T17:03:42.568Z,2.40
2023-05-19T17:06:10.566Z,2.50
2023-05-19T17:08:38.455Z,2.23
2023-05-19T17:11:07.723Z,2.33
2023-05-19T17:13:36.491Z,2.47
2023-05-19T17:16:04.553Z,2.30
2023-05-19T17:18:32.440Z,2.37
2023-05-19T17:21:06.577Z,2.10
2023-05-19T17:23:34.621Z,2.40
2023-05-19T17:26:03.259Z,2.00
2023-05-19T17:28:32.645Z,2.07
2023-05-19T17:31:01.486Z,2.40
2023-05-19T17:33:29.436Z,2.27
2023-05-19T17:35:57.495Z,2.30
2023-05-19T17:38:25.359Z,2.10
2023-05-19T17:40:53.797Z,2.23
2023-05-19T17:43:21.715Z,2.50
2023-05-19T17:45:51.002Z,2.30
2023-05-19T17:48:18.998Z,2.60
2023-05-19T17:50:47.936Z,2.93
2023-05-19T17:53:16.504Z,2.80
2023-05-19T17:55:57.781Z,2.70
2023-05-19T17:58:26.286Z,2.43
2023-05-19T18:00:56.564Z,2.60
2023-05-19T18:03:25.055Z,2.93
2023-05-19T18:05:53.585Z,12.13
2023-05-19T18:08:22.006Z,8.60
2023-05-19T18:10:51.719Z,8.83
2023-05-19T18:13:19.807Z,6.93
2023-05-19T18:15:47.702Z,3.20
2023-05-19T18:18:17.022Z,2.70
2023-05-19T18:20:45.738Z,2.80
2023-05-19T18:23:13.711Z,2.70
2023-05-19T18:25:41.704Z,2.90
2023-05-19T18:28:09.595Z,3.50
2023-05-19T18:30:37.515Z,2.70
2023-05-19T18:33:07.206Z,3.00
2023-05-19T18:35:37.565Z,3.30
2023-05-19T18:38:05.719Z,3.50
2023-05-19T18:40:33.987Z,3.37
2023-05-19T18:43:02.122Z,3.30
2023-05-19T18:45:30.009Z,3.37
2023-05-19T18:47:57.967Z,3.60
2023-05-19T18:50:26.079Z,4.07
2023-05-19T18:52:55.459Z,2.90
2023-05-19T18:55:24.635Z,2.87
2023-05-19T18:57:54.125Z,3.10
2023-05-19T19:00:22.043Z,3.50
2023-05-19T19:02:50.003Z,3.30
2023-05-19T19:05:17.921Z,3.77
2023-05-19T19:07:45.848Z,3.73
2023-05-19T19:10:15.584Z,3.73
2023-05-19T19:12:43.448Z,4.30
2023-05-19T19:15:12.464Z,4.00
2023-05-19T19:17:41.097Z,3.37
2023-05-19T19:20:10.219Z,3.20
2023-05-19T19:22:38.254Z,3.40
2023-05-19T19:25:06.891Z,3.30
2023-05-19T19:27:36.184Z,3.20
2023-05-19T19:30:04.601Z,3.13
2023-05-19T19:32:32.613Z,3.07
2023-05-19T19:35:00.927Z,3.57
2023-05-19T19:37:28.815Z,3.20
2023-05-19T19:39:56.702Z,3.20
2023-05-19T19:42:24.590Z,3.10
2023-05-19T19:44:57.134Z,3.10
2023-05-19T19:47:25.046Z,3.27
2023-05-19T19:49:52.946Z,2.97
2023-05-19T19:52:20.899Z,3.43
2023-05-19T19:54:49.236Z,3.37
2023-05-19T19:57:17.782Z,3.20
2023-05-19T19:59:45.719Z,3.20
2023-05-19T20:02:15.332Z,3.63
2023-05-19T20:04:43.385Z,3.27
2023-05-19T20:07:11.377Z,3.50
2023-05-19T20:09:39.359Z,3.40
2023-05-19T20:12:08.094Z,3.13
2023-05-19T20:14:35.954Z,3.43
2023-05-19T20:17:04.362Z,3.70
2023-05-19T20:19:33.699Z,3.67
2023-05-19T20:22:01.665Z,4.20
2023-05-19T20:24:29.597Z,4.37
2023-05-19T20:26:57.509Z,4.57
2023-05-19T20:29:25.397Z,3.90
2023-05-19T20:31:55.426Z,3.83
2023-05-19T20:34:23.991Z,3.27
2023-05-19T20:36:53.301Z,3.90
2023-05-19T20:39:21.227Z,3.60
2023-05-19T20:41:49.093Z,3.57
2023-05-19T20:44:17.000Z,3.57
2023-05-19T20:46:44.899Z,3.50
2023-05-19T20:49:12.833Z,3.43
2023-05-19T20:51:40.728Z,3.23
2023-05-19T20:54:10.013Z,3.90
2023-05-19T20:56:37.933Z,3.40
2023-05-19T20:59:06.012Z,3.50
2023-05-19T21:01:33.983Z,4.10
2023-05-19T21:04:06.096Z,3.70
2023-05-19T21:06:34.097Z,3.83
2023-05-19T21:09:04.936Z,4.00
2023-05-19T21:11:34.762Z,3.83
2023-05-19T21:14:04.094Z,3.53
2023-05-19T21:16:32.392Z,3.47
2023-05-19T21:19:00.905Z,3.63
2023-05-19T21:21:28.871Z,3.93
2023-05-19T21:23:56.794Z,3.77
2023-05-19T21:26:24.771Z,3.80
2023-05-19T21:28:54.203Z,3.80
2023-05-19T21:31:22.201Z,3.70
2023-05-19T21:33:50.134Z,3.90
2023-05-19T21:36:18.338Z,4.00
2023-05-19T21:38:46.202Z,3.80
2023-05-19T21:41:14.094Z,4.20
2023-05-19T21:43:42.244Z,3.93
2023-05-19T21:46:11.844Z,3.97
2023-05-19T21:48:39.823Z,4.03
2023-05-19T21:51:07.770Z,4.03
2023-05-19T21:53:35.672Z,3.90
2023-05-19T21:56:03.735Z,3.97
2023-05-19T21:58:31.636Z,4.10
2023-05-19T22:01:00.477Z,4.13
2023-05-19T22:03:29.883Z,3.80
2023-05-19T22:05:57.918Z,4.10
2023-05-19T22:08:26.139Z,4.30
2023-05-19T22:10:54.249Z,3.90
2023-05-19T22:13:22.477Z,4.17
2023-05-19T22:15:50.803Z,3.63
2023-05-19T22:18:18.857Z,3.87
2023-05-19T22:20:48.106Z,4.17
2023-05-19T22:23:16.316Z,3.73
2023-05-19T22:25:44.622Z,3.93
2023-05-19T22:28:12.573Z,4.00
2023-05-19T22:30:42.215Z,4.00
2023-05-19T22:33:11.440Z,4.07
2023-05-19T22:35:39.702Z,3.73
2023-05-19T22:38:10.696Z,3.70
2023-05-19T22:40:39.022Z,3.50
2023-05-19T22:43:06.924Z,4.03
2023-05-19T22:45:35.886Z,4.20
2023-05-19T22:48:04.121Z,4.07
2023-05-19T22:50:32.142Z,4.17
2023-05-19T22:53:00.858Z,3.90
2023-05-19T22:55:30.126Z,3.93
2023-05-19T22:57:58.100Z,4.27
2023-05-19T23:00:26.163Z,4.23
2023-05-19T23:02:54.078Z,4.23
2023-05-19T23:05:21.991Z,4.33
2023-05-19T23:07:49.972Z,4.20
2023-05-19T23:10:17.988Z,3.97
2023-05-19T23:12:47.265Z,4.47
2023-05-19T23:15:15.190Z,4.63
2023-05-19T23:17:43.128Z,4.50
2023-05-19T23:20:12.487Z,4.70
2023-05-19T23:22:40.384Z,4.23
2023-05-19T23:25:08.916Z,4.30
2023-05-19T23:27:37.211Z,4.03
2023-05-19T23:30:07.948Z,4.37
2023-05-19T23:32:36.133Z,4.33
2023-05-19T23:35:11.757Z,4.33
2023-05-19T23:37:39.754Z,3.90
2023-05-19T23:40:09.292Z,4.27
2023-05-19T23:42:38.090Z,4.27
2023-05-19T23:45:08.636Z,4.50
2023-05-19T23:47:36.787Z,4.27
2023-05-19T23:50:05.071Z,4.13
2023-05-19T23:55:00.798Z,4.57
2023-05-19T23:57:28.678Z,4.10
2023-05-19T23:59:56.550Z,4.17
